sensor_id;sensor_type;location;lat;lon;timestamp;pressure;altitude;pressure_sealevel;temperature;humidity
49104;BME280;34915;52.926;11.116;2022-08-03T00:01:35;101434.75;;;21.45;73.34
49104;BME280;34915;52.926;11.116;2022-08-03T00:04:01;101429.34;;;21.45;72.20
49104;BME280;34915;52.926;11.116;2022-08-03T00:06:27;101432.69;;;21.39;71.88
49104;BME280;34915;52.926;11.116;2022-08-03T00:08:53;101435.06;;;21.42;73.83
49104;BME280;34915;52.926;11.116;2022-08-03T00:11:19;101438.81;;;21.41;72.98
49104;BME280;34915;52.926;11.116;2022-08-03T00:13:45;101435.41;;;21.39;73.52
49104;BME280;34915;52.926;11.116;2022-08-03T00:16:10;101416.34;;;21.32;72.36
49104;BME280;34915;52.926;11.116;2022-08-03T00:18:37;101421.56;;;21.34;71.52
49104;BME280;34915;52.926;11.116;2022-08-03T00:21:04;101426.97;;;21.34;72.53
49104;BME280;34915;52.926;11.116;2022-08-03T00:23:30;101428.63;;;21.35;72.67
49104;BME280;34915;52.926;11.116;2022-08-03T00:25:55;101435.72;;;21.36;72.36
49104;BME280;34915;52.926;11.116;2022-08-03T00:28:22;101426.63;;;21.37;75.28
49104;BME280;34915;52.926;11.116;2022-08-03T00:30:47;101423.22;;;21.35;76.60
49104;BME280;34915;52.926;11.116;2022-08-03T00:33:13;101414.78;;;21.30;76.85
49104;BME280;34915;52.926;11.116;2022-08-03T00:35:39;101424.41;;;21.32;77.55
49104;BME280;34915;52.926;11.116;2022-08-03T00:38:04;101425.56;;;21.30;77.46
49104;BME280;34915;52.926;11.116;2022-08-03T00:40:31;101406.69;;;21.22;76.75
49104;BME280;34915;52.926;11.116;2022-08-03T00:43:02;101420.50;;;21.27;76.51
49104;BME280;34915;52.926;11.116;2022-08-03T00:45:34;101427.91;;;21.25;78.60
49104;BME280;34915;52.926;11.116;2022-08-03T00:48:00;101421.47;;;21.18;75.97
49104;BME280;34915;52.926;11.116;2022-08-03T00:50:27;101418.09;;;21.16;75.39
49104;BME280;34915;52.926;11.116;2022-08-03T00:52:56;101423.50;;;21.16;76.69
49104;BME280;34915;52.926;11.116;2022-08-03T00:55:22;101418.38;;;21.13;75.76
49104;BME280;34915;52.926;11.116;2022-08-03T00:57:48;101424.09;;;21.10;75.03
49104;BME280;34915;52.926;11.116;2022-08-03T01:00:20;101429.13;;;21.05;73.80
49104;BME280;34915;52.926;11.116;2022-08-03T01:02:45;101425.38;;;20.98;74.55
49104;BME280;34915;52.926;11.116;2022-08-03T01:05:12;101417.25;;;20.90;74.17
49104;BME280;34915;52.926;11.116;2022-08-03T01:15:45;101412.91;;;20.97;77.99
49104;BME280;34915;52.926;11.116;2022-08-03T01:18:40;101413.59;;;20.99;77.31
49104;BME280;34915;52.926;11.116;2022-08-03T01:21:18;101419.97;;;20.98;76.58
49104;BME280;34915;52.926;11.116;2022-08-03T01:26:41;101412.69;;;20.91;78.19
49104;BME280;34915;52.926;11.116;2022-08-03T01:32:06;101403.09;;;20.71;77.54
49104;BME280;34915;52.926;11.116;2022-08-03T01:37:34;101405.50;;;20.74;76.70
49104;BME280;34915;52.926;11.116;2022-08-03T01:40:01;101411.06;;;20.73;77.02
49104;BME280;34915;52.926;11.116;2022-08-03T01:42:29;101408.66;;;20.70;76.49
49104;BME280;34915;52.926;11.116;2022-08-03T01:44:56;101399.56;;;20.71;76.68
49104;BME280;34915;52.926;11.116;2022-08-03T01:47:23;101402.44;;;20.69;76.61
49104;BME280;34915;52.926;11.116;2022-08-03T01:49:51;101392.75;;;20.67;76.58
49104;BME280;34915;52.926;11.116;2022-08-03T01:52:18;101389.72;;;20.62;76.84
49104;BME280;34915;52.926;11.116;2022-08-03T01:54:48;101388.00;;;20.61;78.11
49104;BME280;34915;52.926;11.116;2022-08-03T01:57:16;101393.72;;;20.58;78.42
49104;BME280;34915;52.926;11.116;2022-08-03T01:59:44;101392.66;;;20.51;79.19
49104;BME280;34915;52.926;11.116;2022-08-03T02:02:12;101399.72;;;20.52;79.71
49104;BME280;34915;52.926;11.116;2022-08-03T02:04:40;101398.34;;;20.48;77.96
49104;BME280;34915;52.926;11.116;2022-08-03T02:07:08;101402.03;;;20.47;77.38
49104;BME280;34915;52.926;11.116;2022-08-03T02:09:38;101396.97;;;20.44;77.87
49104;BME280;34915;52.926;11.116;2022-08-03T02:12:08;101394.75;;;20.39;78.26
49104;BME280;34915;52.926;11.116;2022-08-03T02:14:36;101399.97;;;20.41;78.17
49104;BME280;34915;52.926;11.116;2022-08-03T02:17:02;101394.50;;;20.33;77.63
49104;BME280;34915;52.926;11.116;2022-08-03T02:19:29;101397.91;;;20.35;76.97
49104;BME280;34915;52.926;11.116;2022-08-03T02:21:57;101399.53;;;20.28;78.15
49104;BME280;34915;52.926;11.116;2022-08-03T02:24:23;101399.13;;;20.23;78.62
49104;BME280;34915;52.926;11.116;2022-08-03T02:26:54;101407.19;;;20.23;80.29
49104;BME280;34915;52.926;11.116;2022-08-03T02:29:24;101399.41;;;20.20;80.19
49104;BME280;34915;52.926;11.116;2022-08-03T02:31:51;101393.88;;;20.04;79.29
49104;BME280;34915;52.926;11.116;2022-08-03T02:34:19;101408.66;;;20.00;79.55
49104;BME280;34915;52.926;11.116;2022-08-03T02:36:50;101397.13;;;19.90;79.77
49104;BME280;34915;52.926;11.116;2022-08-03T02:39:19;101399.66;;;19.82;80.25
49104;BME280;34915;52.926;11.116;2022-08-03T02:41:51;101399.97;;;19.79;79.88
49104;BME280;34915;52.926;11.116;2022-08-03T02:44:22;101404.28;;;19.73;80.46
49104;BME280;34915;52.926;11.116;2022-08-03T02:46:53;101404.31;;;19.63;80.67
49104;BME280;34915;52.926;11.116;2022-08-03T02:49:20;101401.47;;;19.65;81.84
49104;BME280;34915;52.926;11.116;2022-08-03T02:51:46;101399.50;;;19.67;81.90
49104;BME280;34915;52.926;11.116;2022-08-03T02:54:15;101398.78;;;19.65;82.29
49104;BME280;34915;52.926;11.116;2022-08-03T02:56:43;101387.94;;;19.57;80.64
49104;BME280;34915;52.926;11.116;2022-08-03T02:59:10;101404.75;;;19.59;80.28
49104;BME280;34915;52.926;11.116;2022-08-03T03:01:37;101397.31;;;19.53;81.53
49104;BME280;34915;52.926;11.116;2022-08-03T03:04:04;101399.59;;;19.48;81.16
49104;BME280;34915;52.926;11.116;2022-08-03T03:06:30;101389.47;;;19.32;81.50
49104;BME280;34915;52.926;11.116;2022-08-03T03:08:57;101395.59;;;19.25;82.01
49104;BME280;34915;52.926;11.116;2022-08-03T03:11:24;101377.69;;;19.16;82.73
49104;BME280;34915;52.926;11.116;2022-08-03T03:13:51;101384.16;;;19.23;83.19
49104;BME280;34915;52.926;11.116;2022-08-03T03:16:17;101383.00;;;19.26;82.93
49104;BME280;34915;52.926;11.116;2022-08-03T03:18:44;101388.66;;;19.23;82.37
49104;BME280;34915;52.926;11.116;2022-08-03T03:21:10;101386.72;;;19.15;82.78
49104;BME280;34915;52.926;11.116;2022-08-03T03:23:38;101374.03;;;18.98;83.55
49104;BME280;34915;52.926;11.116;2022-08-03T03:26:05;101389.88;;;19.01;84.94
49104;BME280;34915;52.926;11.116;2022-08-03T03:28:32;101385.06;;;18.95;84.95
49104;BME280;34915;52.926;11.116;2022-08-03T03:30:58;101393.00;;;18.87;85.13
49104;BME280;34915;52.926;11.116;2022-08-03T03:33:24;101383.41;;;18.76;85.22
49104;BME280;34915;52.926;11.116;2022-08-03T03:35:50;101385.69;;;18.71;84.48
49104;BME280;34915;52.926;11.116;2022-08-03T03:38:18;101386.25;;;18.74;84.73
49104;BME280;34915;52.926;11.116;2022-08-03T03:40:44;101395.56;;;18.79;85.40
49104;BME280;34915;52.926;11.116;2022-08-03T03:43:11;101387.22;;;18.82;84.72
49104;BME280;34915;52.926;11.116;2022-08-03T03:45:39;101400.06;;;18.88;84.89
49104;BME280;34915;52.926;11.116;2022-08-03T03:48:06;101389.34;;;18.88;84.37
49104;BME280;34915;52.926;11.116;2022-08-03T03:50:33;101392.41;;;18.93;85.41
49104;BME280;34915;52.926;11.116;2022-08-03T03:53:00;101390.44;;;18.95;84.54
49104;BME280;34915;52.926;11.116;2022-08-03T03:55:26;101385.34;;;18.92;84.65
49104;BME280;34915;52.926;11.116;2022-08-03T03:57:52;101392.13;;;18.96;85.21
49104;BME280;34915;52.926;11.116;2022-08-03T04:00:17;101388.44;;;18.97;85.08
49104;BME280;34915;52.926;11.116;2022-08-03T04:02:44;101399.19;;;18.97;84.15
49104;BME280;34915;52.926;11.116;2022-08-03T04:05:10;101399.06;;;18.99;85.44
49104;BME280;34915;52.926;11.116;2022-08-03T04:10:40;101391.56;;;19.02;85.00
49104;BME280;34915;52.926;11.116;2022-08-03T04:13:26;101389.28;;;18.98;84.84
49104;BME280;34915;52.926;11.116;2022-08-03T04:15:54;101396.94;;;19.02;84.76
49104;BME280;34915;52.926;11.116;2022-08-03T04:18:22;101397.06;;;19.01;85.17
49104;BME280;34915;52.926;11.116;2022-08-03T04:20:49;101404.00;;;19.03;84.63
49104;BME280;34915;52.926;11.116;2022-08-03T04:23:20;101402.56;;;18.99;84.77
49104;BME280;34915;52.926;11.116;2022-08-03T04:25:48;101396.38;;;18.99;85.18
49104;BME280;34915;52.926;11.116;2022-08-03T04:28:16;101397.78;;;18.93;85.72
49104;BME280;34915;52.926;11.116;2022-08-03T04:30:46;101401.88;;;18.97;86.09
49104;BME280;34915;52.926;11.116;2022-08-03T04:33:18;101409.09;;;18.97;85.91
49104;BME280;34915;52.926;11.116;2022-08-03T04:35:45;101406.28;;;18.98;86.71
49104;BME280;34915;52.926;11.116;2022-08-03T04:38:13;101406.28;;;18.98;86.68
49104;BME280;34915;52.926;11.116;2022-08-03T04:40:41;101406.28;;;18.98;86.98
49104;BME280;34915;52.926;11.116;2022-08-03T04:43:09;101413.06;;;19.02;85.94
49104;BME280;34915;52.926;11.116;2022-08-03T04:45:35;101409.38;;;19.03;86.71
49104;BME280;34915;52.926;11.116;2022-08-03T04:48:02;101413.06;;;19.02;85.79
49104;BME280;34915;52.926;11.116;2022-08-03T04:50:28;101402.56;;;18.99;87.13
49104;BME280;34915;52.926;11.116;2022-08-03T04:52:54;101414.47;;;19.06;86.37
49104;BME280;34915;52.926;11.116;2022-08-03T04:55:28;101412.47;;;19.08;86.04
49104;BME280;34915;52.926;11.116;2022-08-03T04:57:54;101398.88;;;19.10;86.68
49104;BME280;34915;52.926;11.116;2022-08-03T05:00:20;101412.19;;;19.11;86.33
49104;BME280;34915;52.926;11.116;2022-08-03T05:02:46;101415.28;;;19.16;86.61
49104;BME280;34915;52.926;11.116;2022-08-03T05:05:11;101410.31;;;19.21;86.84
49104;BME280;34915;52.926;11.116;2022-08-03T05:07:37;101408.03;;;19.26;87.11
49104;BME280;34915;52.926;11.116;2022-08-03T05:10:07;101406.44;;;19.33;86.87
49104;BME280;34915;52.926;11.116;2022-08-03T05:12:33;101407.53;;;19.40;85.50
49104;BME280;34915;52.926;11.116;2022-08-03T05:14:59;101402.75;;;19.43;84.91
49104;BME280;34915;52.926;11.116;2022-08-03T05:17:25;101409.63;;;19.46;83.32
49104;BME280;34915;52.926;11.116;2022-08-03T05:19:50;101409.91;;;19.52;83.78
49104;BME280;34915;52.926;11.116;2022-08-03T05:22:16;101406.78;;;19.57;83.77
49104;BME280;34915;52.926;11.116;2022-08-03T05:24:43;101411.41;;;19.64;83.66
49104;BME280;34915;52.926;11.116;2022-08-03T05:27:08;101407.94;;;19.72;82.55
49104;BME280;34915;52.926;11.116;2022-08-03T05:29:35;101401.66;;;19.80;80.11
49104;BME280;34915;52.926;11.116;2022-08-03T05:32:00;101412.94;;;19.93;78.68
49104;BME280;34915;52.926;11.116;2022-08-03T05:34:26;101407.47;;;20.03;77.32
49104;BME280;34915;52.926;11.116;2022-08-03T05:36:52;101401.22;;;20.12;75.52
49104;BME280;34915;52.926;11.116;2022-08-03T05:39:17;101411.59;;;20.24;75.00
49104;BME280;34915;52.926;11.116;2022-08-03T05:41:43;101412.00;;;20.29;75.55
49104;BME280;34915;52.926;11.116;2022-08-03T05:44:08;101414.75;;;20.37;76.91
49104;BME280;34915;52.926;11.116;2022-08-03T05:46:34;101410.81;;;20.49;74.88
49104;BME280;34915;52.926;11.116;2022-08-03T05:49:00;101398.16;;;20.67;72.85
49104;BME280;34915;52.926;11.116;2022-08-03T05:51:25;101401.28;;;20.72;73.93
49104;BME280;34915;52.926;11.116;2022-08-03T05:53:52;101406.47;;;20.90;72.60
49104;BME280;34915;52.926;11.116;2022-08-03T05:56:21;101404.88;;;21.05;72.43
49104;BME280;34915;52.926;11.116;2022-08-03T05:58:47;101404.00;;;21.30;71.25
49104;BME280;34915;52.926;11.116;2022-08-03T06:01:14;101405.81;;;21.47;70.10
49104;BME280;34915;52.926;11.116;2022-08-03T06:03:40;101409.59;;;21.62;70.27
49104;BME280;34915;52.926;11.116;2022-08-03T06:06:06;101412.63;;;21.67;70.83
49104;BME280;34915;52.926;11.116;2022-08-03T06:08:31;101406.25;;;21.76;70.35
49104;BME280;34915;52.926;11.116;2022-08-03T06:10:57;101404.09;;;21.87;71.05
49104;BME280;34915;52.926;11.116;2022-08-03T06:13:23;101406.50;;;21.98;69.61
49104;BME280;34915;52.926;11.116;2022-08-03T06:15:48;101398.09;;;22.09;69.30
49104;BME280;34915;52.926;11.116;2022-08-03T06:18:14;101399.50;;;22.28;67.83
49104;BME280;34915;52.926;11.116;2022-08-03T06:20:40;101401.19;;;22.45;66.51
49104;BME280;34915;52.926;11.116;2022-08-03T06:23:05;101399.38;;;22.62;65.00
49104;BME280;34915;52.926;11.116;2022-08-03T06:25:31;101399.00;;;22.73;65.63
49104;BME280;34915;52.926;11.116;2022-08-03T06:27:57;101399.03;;;22.96;64.27
49104;BME280;34915;52.926;11.116;2022-08-03T06:30:24;101398.66;;;23.07;64.75
49104;BME280;34915;52.926;11.116;2022-08-03T06:32:52;101404.38;;;23.20;63.12
49104;BME280;34915;52.926;11.116;2022-08-03T06:35:18;101405.38;;;23.27;63.71
49104;BME280;34915;52.926;11.116;2022-08-03T06:37:48;101403.03;;;23.24;63.82
49104;BME280;34915;52.926;11.116;2022-08-03T06:40:22;101415.09;;;23.52;63.36
49104;BME280;34915;52.926;11.116;2022-08-03T06:42:57;101414.00;;;23.77;60.56
49104;BME280;34915;52.926;11.116;2022-08-03T06:45:23;101409.22;;;23.86;60.39
49104;BME280;34915;52.926;11.116;2022-08-03T06:48:03;101414.56;;;24.02;61.16
49104;BME280;34915;52.926;11.116;2022-08-03T06:50:29;101406.38;;;24.10;60.76
49104;BME280;34915;52.926;11.116;2022-08-03T06:52:55;101411.81;;;24.32;59.32
49104;BME280;34915;52.926;11.116;2022-08-03T06:55:21;101417.59;;;24.29;60.61
49104;BME280;34915;52.926;11.116;2022-08-03T06:57:46;101418.09;;;24.33;60.93
49104;BME280;34915;52.926;11.116;2022-08-03T07:00:12;101416.78;;;24.51;59.82
49104;BME280;34915;52.926;11.116;2022-08-03T07:02:39;101414.38;;;24.56;59.51
49104;BME280;34915;52.926;11.116;2022-08-03T07:05:06;101417.84;;;24.65;59.13
49104;BME280;34915;52.926;11.116;2022-08-03T07:07:31;101425.31;;;24.63;59.85
49104;BME280;34915;52.926;11.116;2022-08-03T07:09:57;101413.38;;;24.72;58.72
49104;BME280;34915;52.926;11.116;2022-08-03T07:12:23;101418.94;;;24.78;58.88
49104;BME280;34915;52.926;11.116;2022-08-03T07:14:49;101424.41;;;24.92;59.08
49104;BME280;34915;52.926;11.116;2022-08-03T07:17:14;101421.72;;;25.07;57.89
49104;BME280;34915;52.926;11.116;2022-08-03T07:19:40;101425.88;;;25.17;57.29
49104;BME280;34915;52.926;11.116;2022-08-03T07:22:06;101426.25;;;25.14;57.68
49104;BME280;34915;52.926;11.116;2022-08-03T07:24:33;101420.53;;;25.24;58.02
49104;BME280;34915;52.926;11.116;2022-08-03T07:26:58;101417.66;;;25.25;57.42
49104;BME280;34915;52.926;11.116;2022-08-03T07:29:24;101413.53;;;25.29;57.53
49104;BME280;34915;52.926;11.116;2022-08-03T07:31:50;101422.91;;;25.41;57.61
49104;BME280;34915;52.926;11.116;2022-08-03T07:34:15;101422.22;;;25.53;56.72
49104;BME280;34915;52.926;11.116;2022-08-03T07:36:41;101416.53;;;25.63;56.82
49104;BME280;34915;52.926;11.116;2022-08-03T07:39:06;101420.56;;;25.81;56.27
49104;BME280;34915;52.926;11.116;2022-08-03T07:41:32;101417.66;;;25.82;55.96
49104;BME280;34915;52.926;11.116;2022-08-03T07:43:58;101425.16;;;25.80;57.33
49104;BME280;34915;52.926;11.116;2022-08-03T07:46:23;101419.50;;;25.96;55.21
49104;BME280;34915;52.926;11.116;2022-08-03T07:48:49;101423.22;;;25.95;56.46
49104;BME280;34915;52.926;11.116;2022-08-03T07:51:14;101425.66;;;26.05;56.42
49104;BME280;34915;52.926;11.116;2022-08-03T07:53:40;101427.28;;;26.20;55.61
49104;BME280;34915;52.926;11.116;2022-08-03T07:56:05;101420.38;;;26.32;55.56
49104;BME280;34915;52.926;11.116;2022-08-03T07:58:31;101423.22;;;26.66;53.40
49104;BME280;34915;52.926;11.116;2022-08-03T08:00:59;101419.72;;;26.72;54.67
49104;BME280;34915;52.926;11.116;2022-08-03T08:03:24;101428.78;;;26.79;54.53
49104;BME280;34915;52.926;11.116;2022-08-03T08:05:51;101412.63;;;26.91;54.76
49104;BME280;34915;52.926;11.116;2022-08-03T08:08:18;101415.81;;;27.01;55.20
49104;BME280;34915;52.926;11.116;2022-08-03T08:10:45;101414.88;;;27.15;53.16
49104;BME280;34915;52.926;11.116;2022-08-03T08:13:11;101413.38;;;27.40;51.55
49104;BME280;34915;52.926;11.116;2022-08-03T08:15:36;101408.03;;;27.53;51.87
49104;BME280;34915;52.926;11.116;2022-08-03T08:18:02;101400.97;;;27.65;52.08
49104;BME280;34915;52.926;11.116;2022-08-03T08:20:33;101414.00;;;27.76;50.10
49104;BME280;34915;52.926;11.116;2022-08-03T08:23:06;101411.34;;;27.88;48.95
49104;BME280;34915;52.926;11.116;2022-08-03T08:25:32;101401.56;;;28.00;50.77
49104;BME280;34915;52.926;11.116;2022-08-03T08:27:59;101405.41;;;28.12;50.20
49104;BME280;34915;52.926;11.116;2022-08-03T08:30:30;101404.59;;;28.18;48.44
49104;BME280;34915;52.926;11.116;2022-08-03T08:32:56;101402.50;;;28.33;50.30
49104;BME280;34915;52.926;11.116;2022-08-03T08:35:22;101401.91;;;28.37;48.73
49104;BME280;34915;52.926;11.116;2022-08-03T08:37:48;101391.22;;;28.49;49.87
49104;BME280;34915;52.926;11.116;2022-08-03T08:40:15;101390.81;;;28.65;47.69
49104;BME280;34915;52.926;11.116;2022-08-03T08:42:42;101393.78;;;28.83;46.00
49104;BME280;34915;52.926;11.116;2022-08-03T08:45:08;101391.28;;;28.87;47.30
49104;BME280;34915;52.926;11.116;2022-08-03T08:47:40;101390.00;;;28.96;47.09
49104;BME280;34915;52.926;11.116;2022-08-03T08:50:08;101392.09;;;28.94;47.69
49104;BME280;34915;52.926;11.116;2022-08-03T08:52:36;101391.25;;;29.13;46.60
49104;BME280;34915;52.926;11.116;2022-08-03T08:55:06;101390.38;;;29.19;45.40
49104;BME280;34915;52.926;11.116;2022-08-03T09:00:00;101398.81;;;29.37;44.57
49104;BME280;34915;52.926;11.116;2022-08-03T09:02:28;101400.91;;;29.35;44.56
49104;BME280;34915;52.926;11.116;2022-08-03T09:04:55;101387.44;;;29.33;45.12
49104;BME280;34915;52.926;11.116;2022-08-03T09:07:21;101389.31;;;29.46;44.53
49104;BME280;34915;52.926;11.116;2022-08-03T09:09:50;101402.16;;;29.39;44.03
49104;BME280;34915;52.926;11.116;2022-08-03T09:12:15;101400.03;;;29.41;43.80
49104;BME280;34915;52.926;11.116;2022-08-03T09:14:41;101391.63;;;29.42;44.88
49104;BME280;34915;52.926;11.116;2022-08-03T09:17:06;101389.53;;;29.38;44.43
49104;BME280;34915;52.926;11.116;2022-08-03T09:19:36;101385.34;;;29.42;44.25
49104;BME280;34915;52.926;11.116;2022-08-03T09:22:15;101385.34;;;29.42;43.46
49104;BME280;34915;52.926;11.116;2022-08-03T09:25:04;101386.13;;;29.55;44.36
49104;BME280;34915;52.926;11.116;2022-08-03T09:27:43;101394.50;;;29.67;43.76
49104;BME280;34915;52.926;11.116;2022-08-03T09:30:14;101391.94;;;29.72;44.16
49104;BME280;34915;52.926;11.116;2022-08-03T09:32:40;101386.91;;;29.82;45.06
49104;BME280;34915;52.926;11.116;2022-08-03T09:35:06;101388.16;;;29.85;44.52
49104;BME280;34915;52.926;11.116;2022-08-03T09:37:32;101390.66;;;29.87;44.06
49104;BME280;34915;52.926;11.116;2022-08-03T09:39:58;101379.75;;;29.87;44.85
49104;BME280;34915;52.926;11.116;2022-08-03T09:42:24;101387.28;;;29.91;43.77
49104;BME280;34915;52.926;11.116;2022-08-03T09:44:51;101377.63;;;29.89;44.03
49104;BME280;34915;52.926;11.116;2022-08-03T09:47:34;101388.72;;;30.00;43.09
49104;BME280;34915;52.926;11.116;2022-08-03T09:50:03;101382.19;;;30.01;43.75
49104;BME280;34915;52.926;11.116;2022-08-03T09:52:37;101390.44;;;29.88;42.78
49104;BME280;34915;52.926;11.116;2022-08-03T09:55:11;101371.38;;;29.82;43.60
49104;BME280;34915;52.926;11.116;2022-08-03T09:57:38;101378.50;;;29.77;44.90
49104;BME280;34915;52.926;11.116;2022-08-03T10:00:11;101375.53;;;29.84;45.69
49104;BME280;34915;52.926;11.116;2022-08-03T10:02:39;101375.47;;;29.97;44.41
49104;BME280;34915;52.926;11.116;2022-08-03T10:05:06;101365.34;;;30.04;44.79
49104;BME280;34915;52.926;11.116;2022-08-03T10:07:47;101367.03;;;30.05;43.20
49104;BME280;34915;52.926;11.116;2022-08-03T10:10:14;101369.94;;;30.10;44.39
49104;BME280;34915;52.926;11.116;2022-08-03T10:12:41;101351.00;;;30.09;43.08
49104;BME280;34915;52.926;11.116;2022-08-03T10:15:08;101361.56;;;30.05;42.78
49104;BME280;34915;52.926;11.116;2022-08-03T10:17:35;101350.63;;;30.05;43.33
49104;BME280;34915;52.926;11.116;2022-08-03T10:20:01;101352.47;;;30.11;44.31
49104;BME280;34915;52.926;11.116;2022-08-03T10:22:35;101358.47;;;30.26;43.62
49104;BME280;34915;52.926;11.116;2022-08-03T10:25:09;101353.84;;;30.27;43.59
49104;BME280;34915;52.926;11.116;2022-08-03T10:27:38;101351.31;;;30.25;43.20
49104;BME280;34915;52.926;11.116;2022-08-03T10:30:10;101344.59;;;30.28;43.08
49104;BME280;34915;52.926;11.116;2022-08-03T10:32:37;101345.78;;;30.38;44.04
49104;BME280;34915;52.926;11.116;2022-08-03T10:37:54;101332.47;;;30.48;42.58
49104;BME280;34915;52.926;11.116;2022-08-03T10:40:22;101340.56;;;30.61;41.49
49104;BME280;34915;52.926;11.116;2022-08-03T10:42:50;101349.84;;;30.60;41.63
49104;BME280;34915;52.926;11.116;2022-08-03T10:45:26;101333.94;;;30.50;41.70
49104;BME280;34915;52.926;11.116;2022-08-03T10:47:54;101343.97;;;30.56;42.41
49104;BME280;34915;52.926;11.116;2022-08-03T10:50:23;101331.28;;;30.62;42.31
49104;BME280;34915;52.926;11.116;2022-08-03T10:52:56;101343.91;;;30.63;42.54
49104;BME280;34915;52.926;11.116;2022-08-03T11:01:05;101336.41;;;30.76;41.48
49104;BME280;34915;52.926;11.116;2022-08-03T11:03:31;101331.50;;;30.84;41.43
49104;BME280;34915;52.926;11.116;2022-08-03T11:06:15;101336.16;;;30.84;41.18
49104;BME280;34915;52.926;11.116;2022-08-03T11:08:45;101338.25;;;30.88;41.21
49104;BME280;34915;52.926;11.116;2022-08-03T11:11:31;101333.78;;;30.87;41.11
49104;BME280;34915;52.926;11.116;2022-08-03T11:14:07;101332.41;;;30.79;41.22
49104;BME280;34915;52.926;11.116;2022-08-03T11:19:08;101335.97;;;31.03;41.37
49104;BME280;34915;52.926;11.116;2022-08-03T11:27:16;101306.63;;;30.86;42.56
49104;BME280;34915;52.926;11.116;2022-08-03T11:30:07;101321.06;;;30.99;40.92
49104;BME280;34915;52.926;11.116;2022-08-03T11:37:30;101318.50;;;31.04;40.09
49104;BME280;34915;52.926;11.116;2022-08-03T11:39:56;101320.00;;;31.00;40.47
49104;BME280;34915;52.926;11.116;2022-08-03T11:44:52;101327.16;;;31.01;41.22
49104;BME280;34915;52.926;11.116;2022-08-03T11:47:22;101309.66;;;31.02;40.40
49104;BME280;34915;52.926;11.116;2022-08-03T11:49:49;101317.59;;;31.10;41.84
49104;BME280;34915;52.926;11.116;2022-08-03T11:52:16;101319.56;;;31.21;40.44
49104;BME280;34915;52.926;11.116;2022-08-03T11:54:42;101315.44;;;31.12;39.73
49104;BME280;34915;52.926;11.116;2022-08-03T11:57:08;101318.03;;;30.89;42.24
49104;BME280;34915;52.926;11.116;2022-08-03T11:59:35;101319.56;;;31.03;40.43
49104;BME280;34915;52.926;11.116;2022-08-03T12:02:12;101334.75;;;30.99;40.80
49104;BME280;34915;52.926;11.116;2022-08-03T12:04:50;101325.44;;;30.83;40.73
49104;BME280;34915;52.926;11.116;2022-08-03T12:07:16;101316.59;;;30.81;41.81
49104;BME280;34915;52.926;11.116;2022-08-03T12:09:43;101316.44;;;30.76;42.83
49104;BME280;34915;52.926;11.116;2022-08-03T12:12:09;101326.47;;;30.82;42.79
49104;BME280;34915;52.926;11.116;2022-08-03T12:14:34;101320.31;;;30.92;42.22
49104;BME280;34915;52.926;11.116;2022-08-03T12:17:00;101309.59;;;30.84;42.86
49104;BME280;34915;52.926;11.116;2022-08-03T12:19:26;101315.44;;;30.94;41.48
49104;BME280;34915;52.926;11.116;2022-08-03T12:21:51;101303.13;;;31.03;42.08
49104;BME280;34915;52.926;11.116;2022-08-03T12:24:17;101306.09;;;31.02;41.84
49104;BME280;34915;52.926;11.116;2022-08-03T12:26:46;101310.88;;;31.24;40.67
49104;BME280;34915;52.926;11.116;2022-08-03T12:29:19;101305.88;;;31.21;41.12
49104;BME280;34915;52.926;11.116;2022-08-03T12:31:45;101304.66;;;31.35;40.18
49104;BME280;34915;52.926;11.116;2022-08-03T12:34:11;101306.06;;;31.44;40.38
49104;BME280;34915;52.926;11.116;2022-08-03T12:36:52;101302.72;;;31.42;39.71
49104;BME280;34915;52.926;11.116;2022-08-03T12:39:22;101300.56;;;31.26;39.94
49104;BME280;34915;52.926;11.116;2022-08-03T12:41:53;101291.56;;;31.19;41.87
49104;BME280;34915;52.926;11.116;2022-08-03T12:44:29;101293.81;;;31.46;39.83
49104;BME280;34915;52.926;11.116;2022-08-03T12:46:57;101293.25;;;31.56;39.79
49104;BME280;34915;52.926;11.116;2022-08-03T12:49:23;101296.88;;;31.68;39.67
49104;BME280;34915;52.926;11.116;2022-08-03T13:01:56;101282.56;;;31.66;40.15
49104;BME280;34915;52.926;11.116;2022-08-03T13:04:27;101283.50;;;31.60;39.07
49104;BME280;34915;52.926;11.116;2022-08-03T13:07:01;101284.72;;;31.64;38.67
49104;BME280;34915;52.926;11.116;2022-08-03T13:12:13;101279.06;;;31.59;40.66
49104;BME280;34915;52.926;11.116;2022-08-03T13:14:40;101274.69;;;31.58;41.52
49104;BME280;34915;52.926;11.116;2022-08-03T13:17:06;101273.19;;;32.02;38.68
49104;BME280;34915;52.926;11.116;2022-08-03T13:19:33;101272.06;;;32.21;38.31
49104;BME280;34915;52.926;11.116;2022-08-03T13:22:12;101269.19;;;32.16;37.59
49104;BME280;34915;52.926;11.116;2022-08-03T13:24:39;101273.16;;;32.20;38.85
49104;BME280;34915;52.926;11.116;2022-08-03T13:27:05;101254.16;;;32.30;37.46
49104;BME280;34915;52.926;11.116;2022-08-03T13:29:32;101255.97;;;32.25;37.57
49104;BME280;34915;52.926;11.116;2022-08-03T13:31:59;101260.53;;;32.42;38.08
49104;BME280;34915;52.926;11.116;2022-08-03T13:34:24;101271.19;;;32.50;37.30
49104;BME280;34915;52.926;11.116;2022-08-03T13:36:51;101266.16;;;32.47;37.53
49104;BME280;34915;52.926;11.116;2022-08-03T13:39:16;101261.88;;;32.51;36.86
49104;BME280;34915;52.926;11.116;2022-08-03T13:41:44;101248.94;;;32.40;37.52
49104;BME280;34915;52.926;11.116;2022-08-03T13:44:10;101256.31;;;32.28;37.65